createdAt,value
2018-09-24T00:00:11.029Z,1015.97
2018-09-24T00:01:10.974Z,1015.99
2018-09-24T00:02:11.031Z,1016.01
2018-09-24T00:03:11.089Z,1016.05
2018-09-24T00:04:11.146Z,1016.12
2018-09-24T00:05:11.206Z,1016.16
2018-09-24T00:06:11.261Z,1016.18
2018-09-24T00:07:11.319Z,1016.19
2018-09-24T00:08:11.376Z,1016.20
2018-09-24T00:09:11.437Z,1016.22
2018-09-24T00:10:11.491Z,1016.22
2018-09-24T00:11:11.549Z,1016.29
2018-09-24T00:12:11.606Z,1016.34
2018-09-24T00:13:11.666Z,1016.34
2018-09-24T00:14:11.721Z,1016.36
2018-09-24T00:15:11.778Z,1016.40
2018-09-24T00:16:11.836Z,1016.37
2018-09-24T00:17:11.895Z,1016.41
2018-09-24T00:18:11.951Z,1016.40
2018-09-24T00:19:12.008Z,1016.45
2018-09-24T00:20:12.066Z,1016.46
2018-09-24T00:21:12.124Z,1016.49
2018-09-24T00:22:12.181Z,1016.53
2018-09-24T00:23:12.238Z,1016.55
2018-09-24T00:24:12.296Z,1016.54
2018-09-24T00:25:12.355Z,1016.58
2018-09-24T00:26:12.410Z,1016.59
2018-09-24T00:27:12.467Z,1016.58
2018-09-24T00:28:12.525Z,1016.56
2018-09-24T00:29:12.582Z,1016.60
2018-09-24T00:30:12.639Z,1016.59
2018-09-24T00:31:12.698Z,1016.61
2018-09-24T00:32:13.005Z,1016.66
2018-09-24T00:33:12.812Z,1016.69
2018-09-24T00:34:12.871Z,1016.65
2018-09-24T00:35:12.926Z,1016.69
2018-09-24T00:36:12.984Z,1016.73
2018-09-24T00:37:13.041Z,1016.75
2018-09-24T00:38:13.098Z,1016.80
2018-09-24T00:39:13.155Z,1016.82
2018-09-24T00:40:13.213Z,1016.84
2018-09-24T00:41:13.270Z,1016.85
2018-09-24T00:42:13.327Z,1016.87
2018-09-24T00:43:13.443Z,1016.87
2018-09-24T00:44:13.442Z,1016.86
2018-09-24T00:45:13.501Z,1016.88
2018-09-24T00:46:13.559Z,1016.88
2018-09-24T00:47:13.864Z,1016.89
2018-09-24T00:48:13.670Z,1016.95
2018-09-24T00:49:13.730Z,1016.96
2018-09-24T00:50:13.785Z,1016.96
2018-09-24T00:51:13.843Z,1016.97
2018-09-24T00:52:13.900Z,1016.95
2018-09-24T00:53:13.958Z,1016.98
2018-09-24T00:54:14.015Z,1016.97
2018-09-24T00:55:14.072Z,1016.98
2018-09-24T00:56:14.130Z,1016.98
2018-09-24T00:57:14.188Z,1017.02
2018-09-24T00:58:14.244Z,1017.07
2018-09-24T00:59:14.302Z,1017.05
2018-09-24T01:00:14.359Z,1017.08
2018-09-24T01:01:14.416Z,1017.09
2018-09-24T01:02:14.473Z,1017.10
2018-09-24T01:03:14.531Z,1017.12
2018-09-24T01:04:14.588Z,1017.20
2018-09-24T01:05:14.645Z,1017.20
2018-09-24T01:06:14.701Z,1017.24
2018-09-24T01:07:15.011Z,1017.27
2018-09-24T01:08:14.817Z,1017.25
2018-09-24T01:09:14.874Z,1017.29
2018-09-24T01:10:14.931Z,1017.31
2018-09-24T01:11:14.990Z,1017.37
2018-09-24T01:12:15.045Z,1017.39
2018-09-24T01:13:15.104Z,1017.43
2018-09-24T01:14:15.160Z,1017.42
2018-09-24T01:15:15.218Z,1017.43
2018-09-24T01:16:15.274Z,1017.44
2018-09-24T01:17:15.336Z,1017.44
2018-09-24T01:18:15.388Z,1017.45
2018-09-24T01:19:15.446Z,1017.47
2018-09-24T01:20:15.501Z,1017.47
2018-09-24T01:21:15.560Z,1017.53
2018-09-24T01:22:15.617Z,1017.58
2018-09-24T01:23:15.675Z,1017.60
2018-09-24T01:24:15.731Z,1017.68
2018-09-24T01:25:15.788Z,1017.68
2018-09-24T01:26:15.847Z,1017.68
2018-09-24T01:27:15.903Z,1017.62
2018-09-24T01:28:15.960Z,1017.67
2018-09-24T01:29:16.018Z,1017.65
2018-09-24T01:30:16.074Z,1017.66
2018-09-24T01:31:16.131Z,1017.66
2018-09-24T01:32:16.189Z,1017.68
2018-09-24T01:33:16.246Z,1017.75
2018-09-24T01:34:16.310Z,1017.72
2018-09-24T01:35:16.360Z,1017.74
2018-09-24T01:36:16.417Z,1017.77
2018-09-24T01:37:16.475Z,1017.84
2018-09-24T01:38:16.532Z,1017.82
2018-09-24T01:39:16.589Z,1017.81
2018-09-24T01:40:16.645Z,1017.83
2018-09-24T01:41:16.703Z,1017.82
2018-09-24T01:42:16.760Z,1017.82
2018-09-24T01:43:16.816Z,1017.89
2018-09-24T01:44:16.877Z,1017.91
2018-09-24T01:45:16.933Z,1017.87
2018-09-24T01:46:16.988Z,1017.83
2018-09-24T01:47:17.045Z,1017.84
2018-09-24T01:48:17.104Z,1017.84
2018-09-24T01:49:17.160Z,1017.87
2018-09-24T01:50:17.216Z,1017.92
2018-09-24T01:51:17.274Z,1017.98
2018-09-24T01:52:17.330Z,1017.95
2018-09-24T01:53:17.390Z,1017.99
2018-09-24T01:54:17.444Z,1017.97
2018-09-24T01:55:17.504Z,1018.00
2018-09-24T01:56:17.559Z,1017.97
2018-09-24T01:57:17.616Z,1017.96
2018-09-24T01:58:17.672Z,1017.97
2018-09-24T01:59:17.730Z,1017.96
2018-09-24T02:00:17.789Z,1018.03
2018-09-24T02:01:17.845Z,1018.07
2018-09-24T02:02:17.900Z,1018.06
2018-09-24T02:03:17.958Z,1018.12
2018-09-24T02:04:18.017Z,1018.08
2018-09-24T02:05:18.073Z,1018.11
2018-09-24T02:06:18.131Z,1018.18
2018-09-24T02:07:18.190Z,1018.19
2018-09-24T02:08:18.243Z,1018.19
2018-09-24T02:09:18.301Z,1018.24
2018-09-24T02:10:18.357Z,1018.28
2018-09-24T02:11:18.414Z,1018.27
2018-09-24T02:12:18.471Z,1018.26
2018-09-24T02:13:18.529Z,1018.31
2018-09-24T02:14:18.584Z,1018.31
2018-09-24T02:15:18.641Z,1018.32
2018-09-24T02:16:18.701Z,1018.32
2018-09-24T02:17:18.757Z,1018.29
2018-09-24T02:18:18.812Z,1018.32
2018-09-24T02:19:18.870Z,1018.32
2018-09-24T02:20:18.927Z,1018.34
2018-09-24T02:21:18.991Z,1018.31
2018-09-24T02:22:19.041Z,1018.33
2018-09-24T02:23:19.099Z,1018.41
2018-09-24T02:24:19.155Z,1018.36
2018-09-24T02:25:19.212Z,1018.38
2018-09-24T02:26:19.269Z,1018.37
2018-09-24T02:27:19.326Z,1018.39
2018-09-24T02:28:19.390Z,1018.38
2018-09-24T02:29:19.440Z,1018.47
2018-09-24T02:30:19.505Z,1018.44
2018-09-24T02:31:19.554Z,1018.42
2018-09-24T02:32:19.612Z,1018.46
2018-09-24T02:33:19.668Z,1018.45
2018-09-24T02:34:19.723Z,1018.49
2018-09-24T02:35:19.781Z,1018.50
2018-09-24T02:36:19.838Z,1018.54
2018-09-24T02:37:19.895Z,1018.47
2018-09-24T02:38:19.951Z,1018.49
2018-09-24T02:39:20.008Z,1018.48
2018-09-24T02:40:20.065Z,1018.54
2018-09-24T02:41:20.123Z,1018.52
2018-09-24T02:42:20.181Z,1018.51
2018-09-24T02:43:20.236Z,1018.57
2018-09-24T02:44:20.293Z,1018.56
2018-09-24T02:45:20.351Z,1018.57
2018-09-24T02:46:20.418Z,1018.58
2018-09-24T02:47:20.468Z,1018.59
2018-09-24T02:48:20.521Z,1018.63
2018-09-24T02:49:20.577Z,1018.65
2018-09-24T02:50:20.636Z,1018.68
2018-09-24T02:51:20.690Z,1018.69
2018-09-24T02:52:20.749Z,1018.71
2018-09-24T02:53:20.804Z,1018.75
2018-09-24T02:54:20.860Z,1018.79
2018-09-24T02:55:20.918Z,1018.78
2018-09-24T02:56:20.974Z,1018.83
2018-09-24T02:57:21.032Z,1018.84
2018-09-24T02:58:21.088Z,1018.85
2018-09-24T02:59:21.144Z,1018.84
2018-09-24T03:00:21.207Z,1018.85
2018-09-24T03:01:21.319Z,1018.92
2018-09-24T03:02:21.315Z,1018.89
2018-09-24T03:03:21.372Z,1018.96
2018-09-24T03:04:21.428Z,1018.93
2018-09-24T03:05:21.486Z,1018.98
2018-09-24T03:06:21.543Z,1018.99
2018-09-24T03:07:21.600Z,1019.04
2018-09-24T03:08:21.656Z,1019.07
2018-09-24T03:09:21.712Z,1019.04
2018-09-24T03:10:21.767Z,1019.11
2018-09-24T03:11:21.826Z,1019.09
2018-09-24T03:12:21.883Z,1019.07
2018-09-24T03:13:21.941Z,1019.14
2018-09-24T03:14:21.997Z,1019.12
2018-09-24T03:15:22.053Z,1019.15
2018-09-24T03:16:22.110Z,1019.17
2018-09-24T03:17:22.169Z,1019.11
2018-09-24T03:18:22.223Z,1019.19
2018-09-24T03:19:22.281Z,1019.12
2018-09-24T03:20:22.337Z,1019.15
2018-09-24T03:21:22.397Z,1019.15
2018-09-24T03:22:22.451Z,1019.12
2018-09-24T03:23:22.509Z,1019.15
2018-09-24T03:24:22.564Z,1019.19
2018-09-24T03:25:22.620Z,1019.23
2018-09-24T03:26:22.794Z,1019.27
2018-09-24T03:27:22.734Z,1019.27
2018-09-24T03:28:22.791Z,1019.30
2018-09-24T03:29:22.848Z,1019.33
2018-09-24T03:30:22.904Z,1019.35
2018-09-24T03:31:22.962Z,1019.35
2018-09-24T03:32:23.023Z,1019.41
2018-09-24T03:33:23.075Z,1019.41
2018-09-24T03:34:23.131Z,1019.40
2018-09-24T03:35:23.188Z,1019.43
2018-09-24T03:36:23.245Z,1019.45
2018-09-24T03:37:23.301Z,1019.44
2018-09-24T03:38:23.357Z,1019.43
2018-09-24T03:39:23.416Z,1019.44
2018-09-24T03:40:23.476Z,1019.40
2018-09-24T03:41:23.530Z,1019.45
2018-09-24T03:42:23.584Z,1019.45
2018-09-24T03:43:23.641Z,1019.49
2018-09-24T03:44:23.698Z,1019.50
2018-09-24T03:45:23.758Z,1019.53
2018-09-24T03:46:23.812Z,1019.57
2018-09-24T03:47:23.868Z,1019.58
2018-09-24T03:48:23.925Z,1019.57
2018-09-24T03:49:23.986Z,1019.56
2018-09-24T03:50:24.037Z,1019.63
2018-09-24T03:51:24.094Z,1019.64
2018-09-24T03:52:24.160Z,1019.60
2018-09-24T03:53:24.207Z,1019.64
2018-09-24T03:54:24.265Z,1019.62
2018-09-24T03:55:24.324Z,1019.65
2018-09-24T03:56:24.377Z,1019.68
2018-09-24T03:57:24.476Z,1019.66
2018-09-24T03:58:24.523Z,1019.70
2018-09-24T03:59:24.798Z,1019.73
2018-09-24T04:00:24.607Z,1019.71
2018-09-24T04:01:24.660Z,1019.73
2018-09-24T04:02:24.719Z,1019.75
2018-09-24T04:03:24.774Z,1019.74
2018-09-24T04:04:24.829Z,1019.76
2018-09-24T04:05:24.894Z,1019.76
2018-09-24T04:06:24.942Z,1019.78
2018-09-24T04:07:25.000Z,1019.80
2018-09-24T04:08:25.057Z,1019.82
2018-09-24T04:09:25.178Z,1019.81
2018-09-24T04:10:25.189Z,1019.84
2018-09-24T04:11:25.225Z,1019.89
2018-09-24T04:12:25.283Z,1019.89
2018-09-24T04:13:25.340Z,1019.88
2018-09-24T04:14:25.397Z,1019.96
2018-09-24T04:15:25.454Z,1019.94
2018-09-24T04:16:25.510Z,1019.93
2018-09-24T04:17:25.616Z,1019.97
2018-09-24T04:18:25.622Z,1019.98
2018-09-24T04:19:25.718Z,1020.02
2018-09-24T04:20:25.735Z,1020.04
2018-09-24T04:21:25.793Z,1020.07
2018-09-24T04:22:25.849Z,1020.08
2018-09-24T04:23:25.905Z,1020.10
2018-09-24T04:24:25.962Z,1020.17
2018-09-24T04:25:26.347Z,1020.14
2018-09-24T04:26:26.075Z,1020.19
2018-09-24T04:27:26.131Z,1020.22
2018-09-24T04:28:26.188Z,1020.22
2018-09-24T04:29:26.245Z,1020.21
2018-09-24T04:30:26.301Z,1020.22
2018-09-24T04:31:26.357Z,1020.21
2018-09-24T04:32:26.415Z,1020.23
2018-09-24T04:33:26.471Z,1020.24
2018-09-24T04:34:26.527Z,1020.22
2018-09-24T04:35:26.583Z,1020.24
2018-09-24T04:36:26.640Z,1020.23
2018-09-24T04:37:26.695Z,1020.27
2018-09-24T04:38:26.753Z,1020.28
2018-09-24T04:39:26.826Z,1020.27
2018-09-24T04:40:26.866Z,1020.32
2018-09-24T04:41:26.923Z,1020.34
2018-09-24T04:42:26.978Z,1020.34
2018-09-24T04:43:27.375Z,1020.36
2018-09-24T04:44:27.092Z,1020.34
2018-09-24T04:45:27.149Z,1020.34
2018-09-24T04:46:27.208Z,1020.35
2018-09-24T04:47:27.262Z,1020.35
2018-09-24T04:48:27.317Z,1020.39
2018-09-24T04:49:27.375Z,1020.47
2018-09-24T04:50:27.432Z,1020.46
2018-09-24T04:51:27.486Z,1020.49
2018-09-24T04:52:27.547Z,1020.46
2018-09-24T04:53:27.600Z,1020.48
2018-09-24T04:54:27.659Z,1020.53
2018-09-24T04:55:27.712Z,1020.61
2018-09-24T04:56:27.772Z,1020.63
2018-09-24T04:57:27.827Z,1020.64
2018-09-24T04:58:27.891Z,1020.71
2018-09-24T04:59:27.941Z,1020.72
2018-09-24T05:00:27.994Z,1020.74
2018-09-24T05:01:28.053Z,1020.73
2018-09-24T05:02:28.107Z,1020.68
2018-09-24T05:03:28.164Z,1020.69
2018-09-24T05:04:28.222Z,1020.77
2018-09-24T05:05:28.277Z,1020.76
2018-09-24T05:06:28.333Z,1020.79
2018-09-24T05:07:28.390Z,1020.82
2018-09-24T05:08:28.446Z,1020.80
2018-09-24T05:09:28.505Z,1020.83
2018-09-24T05:10:28.559Z,1020.84
2018-09-24T05:11:28.616Z,1020.86
2018-09-24T05:12:28.672Z,1020.80
2018-09-24T05:13:28.728Z,1020.86
2018-09-24T05:14:28.784Z,1020.87
2018-09-24T05:15:28.840Z,1020.87
2018-09-24T05:16:28.986Z,1020.86
2018-09-24T05:17:28.955Z,1020.90
2018-09-24T05:18:29.014Z,1020.93
2018-09-24T05:19:29.069Z,1020.93
2018-09-24T05:20:29.124Z,1020.95
2018-09-24T05:21:29.183Z,1020.96
2018-09-24T05:22:29.236Z,1020.92
2018-09-24T05:23:29.292Z,1020.93
2018-09-24T05:24:29.348Z,1020.96
2018-09-24T05:25:29.407Z,1020.99
2018-09-24T05:26:29.461Z,1021.00
2018-09-24T05:27:29.609Z,1021.00
2018-09-24T05:28:29.574Z,1021.02
2018-09-24T05:29:30.363Z,1021.02
2018-09-24T05:30:30.415Z,1021.00
2018-09-24T05:31:30.602Z,1021.03
2018-09-24T05:32:30.548Z,1021.05
2018-09-24T05:33:30.389Z,1021.11
2018-09-24T05:34:30.641Z,1021.12
2018-09-24T05:35:30.629Z,1021.17
2018-09-24T05:36:30.689Z,1021.17
2018-09-24T05:37:30.695Z,1021.18
2018-09-24T05:38:30.788Z,1021.21
2018-09-24T05:39:30.947Z,1021.17
2018-09-24T05:40:30.864Z,1021.23
2018-09-24T05:41:31.025Z,1021.24
2018-09-24T05:42:31.098Z,1021.28
2018-09-24T05:43:31.022Z,1021.30
2018-09-24T05:44:31.204Z,1021.27
2018-09-24T05:45:31.387Z,1021.29
2018-09-24T05:46:31.589Z,1021.31
2018-09-24T05:47:31.362Z,1021.32
2018-09-24T05:48:31.405Z,1021.31
2018-09-24T05:49:31.356Z,1021.32
2018-09-24T05:50:31.473Z,1021.32
2018-09-24T05:51:31.599Z,1021.29
2018-09-24T05:52:31.541Z,1021.27
2018-09-24T05:53:31.675Z,1021.28
2018-09-24T05:54:31.775Z,1021.26
2018-09-24T05:55:31.097Z,1021.27
2018-09-24T05:56:31.154Z,1021.29
2018-09-24T05:57:31.209Z,1021.33
2018-09-24T05:58:31.290Z,1021.37
2018-09-24T05:59:31.323Z,1021.38
2018-09-24T06:00:31.413Z,1021.38
2018-09-24T06:01:31.436Z,1021.44
2018-09-24T06:02:31.492Z,1021.50
2018-09-24T06:03:31.551Z,1021.47
2018-09-24T06:04:31.639Z,1021.55
2018-09-24T06:05:31.663Z,1021.51
2018-09-24T06:06:31.722Z,1021.56
2018-09-24T06:07:31.777Z,1021.53
2018-09-24T06:08:31.831Z,1021.51
2018-09-24T06:09:31.888Z,1021.56
2018-09-24T06:10:31.947Z,1021.56
2018-09-24T06:11:32.001Z,1021.61
2018-09-24T06:12:32.066Z,1021.67
2018-09-24T06:13:32.186Z,1021.65
2018-09-24T06:14:32.169Z,1021.65
2018-09-24T06:15:32.226Z,1021.68
2018-09-24T06:16:33.206Z,1021.70
2018-09-24T06:17:32.340Z,1021.70
2018-09-24T06:18:32.395Z,1021.70
2018-09-24T06:19:32.451Z,1021.70
2018-09-24T06:20:32.508Z,1021.76
2018-09-24T06:21:32.568Z,1021.80
2018-09-24T06:22:32.624Z,1021.82
2018-09-24T06:23:32.680Z,1021.84
2018-09-24T06:24:32.734Z,1021.84
2018-09-24T06:25:32.807Z,1021.89
2018-09-24T06:26:32.847Z,1021.88
2018-09-24T06:27:32.909Z,1021.89
2018-09-24T06:28:33.036Z,1021.90
2018-09-24T06:29:33.018Z,1021.95
2018-09-24T06:30:33.074Z,1021.99
2018-09-24T06:31:33.137Z,1022.02
2018-09-24T06:32:33.187Z,1022.07
2018-09-24T06:33:33.244Z,1022.09
2018-09-24T06:34:33.300Z,1022.12
2018-09-24T06:35:33.359Z,1022.12
2018-09-24T06:36:33.414Z,1022.18
2018-09-24T06:37:33.472Z,1022.20
2018-09-24T06:38:33.527Z,1022.16
2018-09-24T06:39:33.585Z,1022.19
2018-09-24T06:40:33.642Z,1022.24
2018-09-24T06:41:33.701Z,1022.19
2018-09-24T06:42:33.753Z,1022.18
2018-09-24T06:43:34.500Z,1022.17
2018-09-24T06:44:33.867Z,1022.19
2018-09-24T06:45:33.924Z,1022.17
2018-09-24T06:46:33.980Z,1022.24
2018-09-24T06:47:34.036Z,1022.19
2018-09-24T06:48:34.095Z,1022.19
2018-09-24T06:49:34.158Z,1022.21
2018-09-24T06:50:34.207Z,1022.23
2018-09-24T06:51:34.264Z,1022.22
2018-09-24T06:52:34.470Z,1022.25
2018-09-24T06:53:34.378Z,1022.27
2018-09-24T06:54:34.434Z,1022.29
2018-09-24T06:55:34.492Z,1022.33
2018-09-24T06:56:34.550Z,1022.27
2018-09-24T06:57:34.967Z,1022.26
2018-09-24T06:58:34.661Z,1022.29
2018-09-24T06:59:34.762Z,1022.29
2018-09-24T07:00:34.777Z,1022.30
2018-09-24T07:01:34.833Z,1022.29
2018-09-24T07:02:34.889Z,1022.30
2018-09-24T07:03:34.947Z,1022.30
2018-09-24T07:04:35.004Z,1022.34
2018-09-24T07:05:35.163Z,1022.35
2018-09-24T07:06:35.117Z,1022.39
2018-09-24T07:07:35.174Z,1022.43
2018-09-24T07:08:35.233Z,1022.38
2018-09-24T07:09:35.289Z,1022.41
2018-09-24T07:10:35.351Z,1022.43
2018-09-24T07:11:35.403Z,1022.44
2018-09-24T07:12:35.460Z,1022.46
2018-09-24T07:13:35.517Z,1022.49
2018-09-24T07:14:35.572Z,1022.49
2018-09-24T07:15:35.632Z,1022.50
2018-09-24T07:16:35.688Z,1022.49
2018-09-24T07:17:35.747Z,1022.50
2018-09-24T07:18:35.803Z,1022.52
2018-09-24T07:19:35.860Z,1022.52
2018-09-24T07:20:35.923Z,1022.56
2018-09-24T07:21:36.378Z,1022.55
2018-09-24T07:22:36.032Z,1022.60
2018-09-24T07:23:36.090Z,1022.58
2018-09-24T07:24:36.149Z,1022.60
2018-09-24T07:25:36.529Z,1022.60
2018-09-24T07:26:36.261Z,1022.62
2018-09-24T07:27:36.364Z,1022.70
2018-09-24T07:28:36.377Z,1022.66
2018-09-24T07:29:36.435Z,1022.65
2018-09-24T07:30:36.527Z,1022.68
2018-09-24T07:31:36.590Z,1022.69
2018-09-24T07:32:36.607Z,1022.72
2018-09-24T07:33:36.665Z,1022.71
2018-09-24T07:34:37.031Z,1022.75
2018-09-24T07:35:36.779Z,1022.73
2018-09-24T07:36:36.871Z,1022.74
2018-09-24T07:37:36.895Z,1022.73
2018-09-24T07:38:36.983Z,1022.73
2018-09-24T07:39:37.045Z,1022.73
2018-09-24T07:40:37.102Z,1022.74
2018-09-24T07:41:37.129Z,1022.74
2018-09-24T07:42:37.223Z,1022.74
2018-09-24T07:43:37.369Z,1022.73
2018-09-24T07:44:37.332Z,1022.75
2018-09-24T07:45:37.389Z,1022.74
2018-09-24T07:46:37.449Z,1022.85
2018-09-24T07:47:37.473Z,1022.81
2018-09-24T07:48:37.535Z,1022.79
2018-09-24T07:49:37.589Z,1022.83
2018-09-24T07:50:37.648Z,1022.84
2018-09-24T07:51:37.705Z,1022.83
2018-09-24T07:52:37.763Z,1022.83
2018-09-24T07:53:37.826Z,1022.83
2018-09-24T07:54:37.881Z,1022.81
2018-09-24T07:55:38.013Z,1022.84
2018-09-24T07:56:38.001Z,1022.89
2018-09-24T07:57:38.057Z,1022.88
2018-09-24T07:58:38.111Z,1022.92
2018-09-24T07:59:38.168Z,1022.91
2018-09-24T08:00:38.227Z,1022.91
2018-09-24T08:01:38.340Z,1022.91
2018-09-24T08:02:38.343Z,1022.93
2018-09-24T08:03:38.402Z,1023.00
2018-09-24T08:04:38.467Z,1023.03
2018-09-24T08:05:38.522Z,1023.01
2018-09-24T08:06:38.577Z,1023.07
2018-09-24T08:07:38.695Z,1023.13
2018-09-24T08:08:38.694Z,1023.14
2018-09-24T08:09:38.760Z,1023.22
2018-09-24T08:10:39.160Z,1023.24
2018-09-24T08:11:38.868Z,1023.27
2018-09-24T08:12:38.929Z,1023.26
2018-09-24T08:13:39.459Z,1023.27
2018-09-24T08:14:39.425Z,1023.29
2018-09-24T08:15:39.104Z,1023.30
2018-09-24T08:16:39.163Z,1023.29
2018-09-24T08:17:39.579Z,1023.29
2018-09-24T08:18:39.278Z,1023.29
2018-09-24T08:19:39.337Z,1023.24
2018-09-24T08:20:39.403Z,1023.26
2018-09-24T08:21:39.877Z,1023.24
2018-09-24T08:22:39.515Z,1023.20
2018-09-24T08:23:39.823Z,1023.25
2018-09-24T08:24:39.633Z,1023.28
2018-09-24T08:25:39.692Z,1023.32
2018-09-24T08:26:39.747Z,1023.32
2018-09-24T08:27:39.810Z,1023.37
2018-09-24T08:28:39.866Z,1023.37
2018-09-24T08:29:39.927Z,1023.40
2018-09-24T08:30:39.984Z,1023.41
2018-09-24T08:31:40.397Z,1023.39
2018-09-24T08:32:40.103Z,1023.38
2018-09-24T08:33:40.162Z,1023.31
2018-09-24T08:34:40.220Z,1023.30
2018-09-24T08:35:41.084Z,1023.32
2018-09-24T08:36:40.342Z,1023.33
2018-09-24T08:37:40.399Z,1023.34
2018-09-24T08:38:40.460Z,1023.33
2018-09-24T08:39:40.516Z,1023.33
2018-09-24T08:40:40.581Z,1023.34
2018-09-24T08:41:40.635Z,1023.40
2018-09-24T08:42:40.694Z,1023.35
2018-09-24T08:43:41.257Z,1023.37
2018-09-24T08:44:40.817Z,1023.34
2018-09-24T08:45:40.978Z,1023.39
2018-09-24T08:46:40.933Z,1023.40
2018-09-24T08:47:40.992Z,1023.41
2018-09-24T08:48:41.052Z,1023.35
2018-09-24T08:49:41.152Z,1023.27
2018-09-24T08:50:41.176Z,1023.33
2018-09-24T08:51:41.228Z,1023.28
2018-09-24T08:52:41.291Z,1023.40
2018-09-24T08:53:41.348Z,1023.43
2018-09-24T08:54:41.419Z,1023.48
2018-09-24T08:55:41.469Z,1023.48
2018-09-24T08:56:41.536Z,1023.40
2018-09-24T08:57:41.896Z,1023.44
2018-09-24T08:58:41.975Z,1023.45
2018-09-24T08:59:41.706Z,1023.48
2018-09-24T09:00:41.784Z,1023.43
2018-09-24T09:01:41.826Z,1023.52
2018-09-24T09:02:41.951Z,1023.50
2018-09-24T09:03:41.943Z,1023.38
2018-09-24T09:04:42.004Z,1023.42
2018-09-24T09:05:42.372Z,1023.41
2018-09-24T09:06:42.123Z,1023.49
2018-09-24T09:07:42.180Z,1023.50
2018-09-24T09:08:42.243Z,1023.42
2018-09-24T09:09:42.928Z,1023.43
2018-09-24T09:10:42.359Z,1023.38
2018-09-24T09:11:42.420Z,1023.30
2018-09-24T09:12:42.480Z,1023.28
2018-09-24T09:13:42.545Z,1023.29
2018-09-24T09:14:42.599Z,1023.32
2018-09-24T09:15:42.969Z,1023.39
2018-09-24T09:16:42.717Z,1023.41
2018-09-24T09:17:42.779Z,1023.46
2018-09-24T09:18:42.839Z,1023.47
2018-09-24T09:19:42.898Z,1023.44
2018-09-24T09:20:42.959Z,1023.48
2018-09-24T09:21:43.018Z,1023.50
2018-09-24T09:22:43.078Z,1023.50
2018-09-24T09:23:43.137Z,1023.52
2018-09-24T09:24:43.198Z,1023.47
2018-09-24T09:25:43.259Z,1023.56
2018-09-24T09:26:43.753Z,1023.60
2018-09-24T09:27:43.378Z,1023.56
2018-09-24T09:28:43.483Z,1023.58
2018-09-24T09:29:43.503Z,1023.67
2018-09-24T09:30:43.558Z,1023.68
2018-09-24T09:31:43.619Z,1023.66
2018-09-24T09:32:43.680Z,1023.73
2018-09-24T09:33:43.740Z,1023.79
2018-09-24T09:34:43.800Z,1023.74
2018-09-24T09:35:43.871Z,1023.70
2018-09-24T09:36:43.921Z,1023.71
2018-09-24T09:37:43.982Z,1023.75
2018-09-24T09:38:44.043Z,1023.80
2018-09-24T09:39:44.117Z,1023.81
2018-09-24T09:40:44.164Z,1023.85
2018-09-24T09:41:44.234Z,1023.82
2018-09-24T09:42:44.295Z,1023.80
2018-09-24T09:43:44.347Z,1023.85
2018-09-24T09:44:44.409Z,1023.88
2018-09-24T09:45:44.469Z,1023.85
2018-09-24T09:46:44.555Z,1023.80
2018-09-24T09:47:44.591Z,1023.78
2018-09-24T09:48:44.668Z,1023.74
2018-09-24T09:49:44.714Z,1023.85
2018-09-24T09:50:44.773Z,1023.84
2018-09-24T09:51:45.420Z,1023.88
2018-09-24T09:52:44.897Z,1023.94
2018-09-24T09:53:45.076Z,1023.96
2018-09-24T09:54:45.020Z,1023.94
2018-09-24T09:55:45.080Z,1023.89
2018-09-24T09:56:45.142Z,1023.97
2018-09-24T09:57:45.202Z,1023.98
2018-09-24T09:58:45.265Z,1023.94
2018-09-24T09:59:45.351Z,1023.88
2018-09-24T10:00:45.386Z,1023.97
2018-09-24T10:01:45.446Z,1023.95
2018-09-24T10:02:45.506Z,1023.92
2018-09-24T10:03:45.568Z,1023.91
2018-09-24T10:04:45.667Z,1023.90
2018-09-24T10:05:45.691Z,1023.87
2018-09-24T10:06:45.750Z,1023.74
2018-09-24T10:07:45.811Z,1023.71
2018-09-24T10:08:45.873Z,1023.73
2018-09-24T10:09:45.935Z,1023.69
2018-09-24T10:10:45.994Z,1023.63
2018-09-24T10:11:46.055Z,1023.61
2018-09-24T10:12:46.116Z,1023.69
2018-09-24T10:13:46.178Z,1023.72
2018-09-24T10:14:46.237Z,1023.64
2018-09-24T10:15:46.309Z,1023.72
2018-09-24T10:16:46.362Z,1023.84
2018-09-24T10:17:46.424Z,1023.84
2018-09-24T10:18:46.486Z,1023.73
2018-09-24T10:19:46.545Z,1023.77
2018-09-24T10:20:46.606Z,1023.78
2018-09-24T10:21:46.668Z,1023.81
2018-09-24T10:22:46.809Z,1023.79
2018-09-24T10:23:46.789Z,1023.82
2018-09-24T10:24:46.851Z,1023.79
2018-09-24T10:25:46.913Z,1023.78
2018-09-24T10:26:46.973Z,1023.95
2018-09-24T10:27:47.034Z,1023.84
2018-09-24T10:28:47.096Z,1023.79
2018-09-24T10:29:47.157Z,1023.87
2018-09-24T10:30:47.218Z,1023.74
2018-09-24T10:31:47.279Z,1023.73
2018-09-24T10:32:47.343Z,1023.72
2018-09-24T10:33:47.462Z,1023.72
2018-09-24T10:34:47.462Z,1023.69
2018-09-24T10:35:47.524Z,1023.76
2018-09-24T10:36:47.585Z,1023.79
2018-09-24T10:37:47.646Z,1023.79
2018-09-24T10:38:47.707Z,1023.80
2018-09-24T10:39:47.840Z,1023.82
2018-09-24T10:40:47.829Z,1023.82
2018-09-24T10:41:47.890Z,1023.83
2018-09-24T10:42:47.951Z,1023.85
2018-09-24T10:43:48.011Z,1023.85
2018-09-24T10:44:48.073Z,1023.79
2018-09-24T10:45:48.139Z,1023.81
2018-09-24T10:46:48.196Z,1023.68
2018-09-24T10:47:48.258Z,1023.71
2018-09-24T10:48:48.319Z,1023.75
2018-09-24T10:49:48.381Z,1023.62
2018-09-24T10:50:48.442Z,1023.62
2018-09-24T10:51:48.507Z,1023.66
2018-09-24T10:52:48.654Z,1023.74
2018-09-24T10:53:48.630Z,1023.70
2018-09-24T10:54:48.695Z,1023.75
2018-09-24T10:55:48.761Z,1023.70
2018-09-24T10:56:48.815Z,1023.67
2018-09-24T10:57:48.876Z,1023.79
2018-09-24T10:58:48.955Z,1023.80
2018-09-24T10:59:49.000Z,1023.83
2018-09-24T11:00:49.062Z,1025.57
2018-09-24T11:01:49.125Z,1025.56
2018-09-24T11:02:49.185Z,1025.57
2018-09-24T11:03:49.248Z,1025.56
2018-09-24T11:04:49.363Z,1023.74
2018-09-24T11:05:49.375Z,1023.65
2018-09-24T11:06:49.434Z,1025.28
2018-09-24T11:07:49.496Z,1023.63
2018-09-24T11:08:49.560Z,1023.60
2018-09-24T11:09:49.665Z,1023.67
2018-09-24T11:10:49.685Z,1024.64
2018-09-24T11:11:49.748Z,1023.76
2018-09-24T11:12:49.809Z,1023.83
2018-09-24T11:13:49.872Z,1023.74
2018-09-24T11:14:49.943Z,1023.72
2018-09-24T11:15:50.095Z,1023.71
2018-09-24T11:16:50.113Z,1023.73
2018-09-24T11:17:50.446Z,1025.39
2018-09-24T11:18:50.185Z,1025.35
2018-09-24T11:19:50.251Z,1025.31
2018-09-24T11:20:50.312Z,1025.24
2018-09-24T11:21:50.374Z,1025.25
2018-09-24T11:22:50.437Z,1025.37
2018-09-24T11:23:50.498Z,1025.34
2018-09-24T11:24:50.560Z,1025.38
2018-09-24T11:25:50.624Z,1025.38
2018-09-24T11:26:50.688Z,1025.39
2018-09-24T11:27:50.755Z,1025.40
2018-09-24T11:28:50.815Z,1025.13
2018-09-24T11:29:50.882Z,1024.04
2018-09-24T11:30:50.942Z,1023.91
2018-09-24T11:31:51.009Z,1023.72
2018-09-24T11:32:51.074Z,1023.80
2018-09-24T11:33:51.138Z,1023.76
2018-09-24T11:34:51.201Z,1023.81
2018-09-24T11:35:51.268Z,1023.76
2018-09-24T11:36:51.330Z,1023.73
2018-09-24T11:37:51.395Z,1023.77
2018-09-24T11:38:51.457Z,1023.76
2018-09-24T11:39:51.520Z,1023.82
2018-09-24T11:40:51.584Z,1023.80
2018-09-24T11:41:51.648Z,1023.83
2018-09-24T11:42:51.712Z,1023.78
2018-09-24T11:43:52.386Z,1023.80
2018-09-24T11:44:51.841Z,1023.83
2018-09-24T11:45:51.903Z,1023.90
2018-09-24T11:46:52.092Z,1024.00
2018-09-24T11:47:52.029Z,1023.89
2018-09-24T11:48:52.094Z,1023.88
2018-09-24T11:49:52.156Z,1023.98
2018-09-24T11:50:52.219Z,1023.93
2018-09-24T11:51:52.283Z,1023.92
2018-09-24T11:52:52.346Z,1023.85
2018-09-24T11:53:52.411Z,1023.86
2018-09-24T11:54:52.472Z,1023.82
2018-09-24T11:55:52.538Z,1023.83
2018-09-24T11:56:52.600Z,1023.91
2018-09-24T11:57:52.665Z,1023.93
2018-09-24T11:58:52.728Z,1024.12
2018-09-24T11:59:52.790Z,1024.89
2018-09-24T12:00:52.855Z,1024.04
2018-09-24T12:01:53.516Z,1023.91
2018-09-24T12:02:52.980Z,1023.87
2018-09-24T12:03:53.045Z,1023.85
2018-09-24T12:04:53.108Z,1023.89
2018-09-24T12:05:53.174Z,1023.87